createdAt,value
2022-08-26T00:01:44.261Z,100814.77
2022-08-26T00:04:12.345Z,100814.78
2022-08-26T00:06:46.073Z,100815.90
2022-08-26T00:09:16.232Z,100811.49
2022-08-26T00:11:44.728Z,100807.46
2022-08-26T00:14:13.675Z,100807.48
2022-08-26T00:16:47.738Z,100801.63
2022-08-26T00:19:18.347Z,100799.86
2022-08-26T00:21:48.774Z,100793.49
2022-08-26T00:24:20.270Z,100791.72
2022-08-26T00:26:47.614Z,100789.27
2022-08-26T00:29:14.261Z,100786.78
2022-08-26T00:31:42.120Z,100783.40
2022-08-26T00:34:11.329Z,100780.75
2022-08-26T00:36:39.290Z,100780.41
2022-08-26T00:39:07.677Z,100783.59
2022-08-26T00:41:37.271Z,100782.35
2022-08-26T00:44:04.938Z,100780.44
2022-08-26T00:46:36.373Z,100778.67
2022-08-26T00:49:15.223Z,100776.55
2022-08-26T00:51:47.604Z,100775.31
2022-08-26T00:54:16.375Z,100773.20
2022-08-26T00:57:16.225Z,100773.92
2022-08-26T00:59:46.621Z,100774.30
2022-08-26T01:02:21.281Z,100773.95
2022-08-26T01:04:56.262Z,100768.11
2022-08-26T01:07:30.328Z,100767.98
2022-08-26T01:10:05.652Z,100771.37
2022-08-26T01:12:40.166Z,100770.48
2022-08-26T01:15:13.043Z,100767.85
2022-08-26T01:17:39.587Z,100766.63
2022-08-26T01:20:30.828Z,100765.93
2022-08-26T01:23:09.112Z,100768.45
2022-08-26T01:25:41.217Z,100769.53
2022-08-26T01:28:15.093Z,100767.75
2022-08-26T01:30:44.798Z,100765.97
2022-08-26T01:33:15.364Z,100767.73
2022-08-26T01:35:43.986Z,100765.95
2022-08-26T01:38:12.194Z,100766.63
2022-08-26T01:40:42.787Z,100766.12
2022-08-26T01:43:16.203Z,100761.33
2022-08-26T01:45:45.297Z,100759.91
2022-08-26T01:48:18.549Z,100752.47
2022-08-26T01:50:46.817Z,100751.41
2022-08-26T01:53:18.061Z,100752.31
2022-08-26T01:55:50.350Z,100754.08
2022-08-26T01:58:25.838Z,100748.77
2022-08-26T02:00:53.987Z,100750.92
2022-08-26T02:03:22.011Z,100746.16
2022-08-26T02:05:56.402Z,100744.60
2022-08-26T02:08:30.402Z,100744.77
2022-08-26T02:10:57.097Z,100741.23
2022-08-26T02:13:29.369Z,100737.70
2022-08-26T02:15:56.830Z,100739.52
2022-08-26T02:18:25.007Z,100739.52
2022-08-26T02:20:53.488Z,100737.39
2022-08-26T02:23:19.859Z,100735.09
2022-08-26T02:26:01.891Z,100734.74
2022-08-26T02:28:35.239Z,100739.34
2022-08-26T02:31:02.656Z,100734.94
2022-08-26T02:33:29.875Z,100731.75
2022-08-26T02:35:57.363Z,100732.11
2022-08-26T02:38:23.976Z,100732.11
2022-08-26T02:40:50.444Z,100728.57
2022-08-26T02:43:18.029Z,100730.88
2022-08-26T02:45:45.340Z,100726.29
2022-08-26T02:48:15.262Z,100728.23
2022-08-26T02:50:42.115Z,100726.29
2022-08-26T02:53:10.408Z,100730.37
2022-08-26T02:55:37.148Z,100728.97
2022-08-26T02:58:04.429Z,100726.67
2022-08-26T03:00:32.106Z,100721.73
2022-08-26T03:02:59.178Z,100721.58
2022-08-26T03:05:25.830Z,100720.15
2022-08-26T03:07:52.677Z,100721.05
2022-08-26T03:10:21.533Z,100721.05
2022-08-26T03:12:48.262Z,100723.17
2022-08-26T03:15:17.932Z,100718.61
2022-08-26T03:17:47.124Z,100719.66
2022-08-26T03:20:15.571Z,100717.17
2022-08-26T03:22:44.898Z,100720.54
2022-08-26T03:25:14.446Z,100718.59
2022-08-26T03:27:43.122Z,100717.54
2022-08-26T03:30:31.109Z,100719.15
2022-08-26T03:32:58.414Z,100718.07
2022-08-26T03:35:25.226Z,100714.71
2022-08-26T03:37:52.591Z,100715.42
2022-08-26T03:40:20.369Z,100717.42
2022-08-26T03:42:47.717Z,100715.33
2022-08-26T03:45:16.423Z,100719.41
2022-08-26T03:47:43.988Z,100715.16
2022-08-26T03:50:13.159Z,100716.95
2022-08-26T03:52:43.686Z,100718.54
2022-08-26T03:55:11.442Z,100715.36
2022-08-26T03:57:37.949Z,100713.76
2022-08-26T04:00:08.096Z,100716.60
2022-08-26T04:02:34.689Z,100721.02
2022-08-26T04:05:02.011Z,100721.02
2022-08-26T04:07:28.819Z,100721.04
2022-08-26T04:09:58.595Z,100722.13
2022-08-26T04:12:25.592Z,100723.19
2022-08-26T04:14:53.413Z,100721.08
2022-08-26T04:17:20.762Z,100716.84
2022-08-26T04:19:54.886Z,100720.19
2022-08-26T04:22:24.093Z,100725.32
2022-08-26T04:24:52.390Z,100723.71
2022-08-26T04:27:19.157Z,100726.17
2022-08-26T04:29:45.988Z,100725.83
2022-08-26T04:32:15.514Z,100726.19
2022-08-26T04:34:43.610Z,100724.75
2022-08-26T04:37:12.668Z,100725.27
2022-08-26T04:39:39.594Z,100726.70
2022-08-26T04:42:06.118Z,100727.05
2022-08-26T04:44:35.103Z,100725.62
2022-08-26T04:47:01.747Z,100729.85
2022-08-26T04:49:35.195Z,100731.98
2022-08-26T04:52:04.812Z,100733.21
2022-08-26T04:54:31.395Z,100732.31
2022-08-26T04:56:57.929Z,100728.24
2022-08-26T04:59:24.585Z,100723.80
2022-08-26T05:01:58.768Z,100722.19
2022-08-26T05:04:26.133Z,100727.29
2022-08-26T05:06:56.676Z,100733.45
2022-08-26T05:09:25.884Z,100731.68
2022-08-26T05:11:52.512Z,100732.36
2022-08-26T05:14:22.599Z,100732.85
2022-08-26T05:16:49.408Z,100733.23
2022-08-26T05:19:18.930Z,100732.81
2022-08-26T05:21:47.945Z,100734.02
2022-08-26T05:24:16.166Z,100738.83
2022-08-26T05:26:44.510Z,100738.57
2022-08-26T05:29:11.917Z,100743.36
2022-08-26T05:31:38.784Z,100744.02
2022-08-26T05:34:06.068Z,100746.30
2022-08-26T05:36:35.371Z,100748.67
2022-08-26T05:39:03.951Z,100743.44
2022-08-26T05:41:36.267Z,100744.40
2022-08-26T05:44:06.973Z,100748.48
2022-08-26T05:46:34.664Z,100747.61
2022-08-26T05:49:03.770Z,100749.09
2022-08-26T05:51:31.045Z,100748.21
2022-08-26T05:54:00.418Z,100748.39
2022-08-26T05:56:28.288Z,100748.96
2022-08-26T05:58:56.367Z,100748.72
2022-08-26T06:01:27.933Z,100752.13
2022-08-26T06:03:57.931Z,100747.42
2022-08-26T06:06:31.054Z,100747.68
2022-08-26T06:08:59.546Z,100745.38
2022-08-26T06:11:28.714Z,100749.13
2022-08-26T06:14:02.555Z,100749.61
2022-08-26T06:16:33.969Z,100742.62
2022-08-26T06:19:02.749Z,100742.13
2022-08-26T06:21:32.392Z,100744.26
2022-08-26T06:24:26.972Z,100744.74
2022-08-26T06:27:00.548Z,100744.86
2022-08-26T06:29:29.159Z,100738.20
2022-08-26T06:31:57.330Z,100735.56
2022-08-26T06:34:26.598Z,100734.31
2022-08-26T06:37:01.544Z,100733.80
2022-08-26T06:39:30.764Z,100735.27
2022-08-26T06:41:59.552Z,100739.26
2022-08-26T06:44:26.613Z,100737.98
2022-08-26T06:46:53.513Z,100740.57
2022-08-26T06:49:26.745Z,100737.73
2022-08-26T06:51:57.389Z,100736.95
2022-08-26T06:54:25.956Z,100733.75
2022-08-26T06:56:52.996Z,100732.34
2022-08-26T06:59:21.194Z,100734.73
2022-08-26T07:01:47.767Z,100729.90
2022-08-26T07:04:20.196Z,100734.88
2022-08-26T07:06:50.153Z,100736.10
2022-08-26T07:09:25.701Z,100736.16
2022-08-26T07:11:55.456Z,100732.19
2022-08-26T07:14:22.299Z,100727.90
2022-08-26T07:16:50.269Z,100729.86
2022-08-26T07:19:29.909Z,100731.02
2022-08-26T07:22:01.257Z,100731.97
2022-08-26T07:24:28.423Z,100730.61
2022-08-26T07:27:03.377Z,100725.92
2022-08-26T07:29:34.361Z,100734.02
2022-08-26T07:32:01.909Z,100735.14
2022-08-26T07:34:28.800Z,100735.69
2022-08-26T07:36:56.275Z,100734.16
2022-08-26T07:39:23.826Z,100735.06
2022-08-26T07:41:51.827Z,100733.54
2022-08-26T07:44:20.477Z,100730.98
2022-08-26T07:46:52.464Z,100733.54
2022-08-26T07:49:21.980Z,100733.42
2022-08-26T07:51:49.231Z,100728.73
2022-08-26T07:54:16.237Z,100728.37
2022-08-26T07:56:44.291Z,100731.92
2022-08-26T07:59:13.570Z,100731.80
2022-08-26T08:01:44.767Z,100732.90
2022-08-26T08:04:14.025Z,100731.80
2022-08-26T08:06:41.665Z,100730.34
2022-08-26T08:09:12.664Z,100731.23
2022-08-26T08:11:40.764Z,100732.66
2022-08-26T08:14:08.513Z,100732.66
2022-08-26T08:16:41.538Z,100733.23
2022-08-26T08:19:13.852Z,100733.37
2022-08-26T08:21:42.368Z,100729.98
2022-08-26T08:24:10.655Z,100731.08
2022-08-26T08:26:37.415Z,100733.31
2022-08-26T08:29:04.861Z,100731.98
2022-08-26T08:31:57.073Z,100728.73
2022-08-26T08:34:20.080Z,100723.96
2022-08-26T08:36:49.743Z,100723.90
2022-08-26T08:39:19.846Z,100723.92
2022-08-26T08:42:10.442Z,100718.89
2022-08-26T08:44:41.177Z,100721.38
2022-08-26T08:47:37.167Z,100715.21
2022-08-26T08:50:19.426Z,100709.50
2022-08-26T08:52:54.729Z,100709.27
2022-08-26T08:55:30.739Z,100712.27
2022-08-26T08:58:12.011Z,100712.49
2022-08-26T09:00:57.283Z,100707.46
2022-08-26T09:03:51.706Z,100708.38
2022-08-26T09:06:19.941Z,100709.85
2022-08-26T09:08:50.166Z,100705.88
2022-08-26T09:11:19.695Z,100699.45
2022-08-26T09:13:52.901Z,100700.23
2022-08-26T09:16:37.919Z,100702.94
2022-08-26T09:19:32.836Z,100697.27
2022-08-26T09:22:02.249Z,100697.73
2022-08-26T09:24:39.563Z,100691.86
2022-08-26T09:27:08.799Z,100693.77
2022-08-26T09:29:43.954Z,100690.90
2022-08-26T09:32:24.520Z,100689.64
2022-08-26T09:34:58.337Z,100689.65
2022-08-26T09:40:22.020Z,100690.11
2022-08-26T09:43:15.303Z,100685.08
2022-08-26T09:45:51.115Z,100681.17
2022-08-26T09:48:29.674Z,100678.66
2022-08-26T09:50:59.715Z,100677.12
2022-08-26T09:53:30.540Z,100675.84
2022-08-26T09:56:32.006Z,100674.89
2022-08-26T09:59:00.369Z,100675.45
2022-08-26T10:01:42.340Z,100671.17
2022-08-26T10:04:20.859Z,100675.05
2022-08-26T10:06:58.441Z,100671.19
2022-08-26T10:09:26.364Z,100674.67
2022-08-26T10:11:56.178Z,100670.48
2022-08-26T10:14:32.015Z,100665.60
2022-08-26T10:17:05.338Z,100666.49
2022-08-26T10:19:56.527Z,100660.68
2022-08-26T10:22:42.923Z,100653.02
2022-08-26T10:25:19.842Z,100651.54
2022-08-26T10:28:08.078Z,100657.08
2022-08-26T10:30:49.770Z,100653.86
2022-08-26T10:33:17.931Z,100648.15
2022-08-26T10:35:56.054Z,100649.27
2022-08-26T10:38:34.143Z,100650.38
2022-08-26T10:41:23.531Z,100648.94
2022-08-26T10:43:59.689Z,100647.92
2022-08-26T10:46:35.304Z,100643.17
2022-08-26T10:49:12.484Z,100644.91
2022-08-26T10:52:03.159Z,100644.32
2022-08-26T10:55:08.486Z,100645.48
2022-08-26T10:57:53.884Z,100639.20
2022-08-26T11:00:45.609Z,100637.91
2022-08-26T11:03:35.197Z,100634.27
2022-08-26T11:06:23.216Z,100635.10
2022-08-26T11:08:56.456Z,100632.57
2022-08-26T11:11:44.740Z,100626.64
2022-08-26T11:14:40.739Z,100620.17
2022-08-26T11:17:46.308Z,100619.03
2022-08-26T11:20:21.933Z,100616.75
2022-08-26T11:22:52.681Z,100609.27
2022-08-26T11:25:29.135Z,100607.48
2022-08-26T11:27:59.197Z,100607.08
2022-08-26T11:30:36.256Z,100606.27
2022-08-26T11:33:02.723Z,100608.84
2022-08-26T11:35:46.987Z,100606.02
2022-08-26T11:38:30.251Z,100599.70
2022-08-26T11:41:20.246Z,100591.13
2022-08-26T11:43:51.396Z,100592.88
2022-08-26T11:46:26.835Z,100593.30
2022-08-26T11:49:01.933Z,100588.05
2022-08-26T11:51:30.866Z,100584.08
2022-08-26T11:54:13.515Z,100578.23
2022-08-26T11:56:42.268Z,100582.70
2022-08-26T11:59:12.514Z,100579.66
2022-08-26T12:01:43.858Z,100577.75
2022-08-26T12:04:20.302Z,100575.95
2022-08-26T12:06:50.313Z,100579.17
2022-08-26T12:09:23.201Z,100576.55
2022-08-26T12:11:49.821Z,100571.52
2022-08-26T12:14:23.775Z,100567.67
2022-08-26T12:16:52.739Z,100565.02
2022-08-26T12:19:26.170Z,100568.10
2022-08-26T12:22:01.517Z,100562.37
2022-08-26T12:24:28.337Z,100553.09
2022-08-26T12:27:16.282Z,100549.38
2022-08-26T12:29:43.379Z,100546.69
2022-08-26T12:32:17.752Z,100543.31
2022-08-26T12:34:48.389Z,100537.00
2022-08-26T12:37:15.176Z,100534.30
2022-08-26T12:39:44.113Z,100526.84
2022-08-26T12:42:15.198Z,100526.73
2022-08-26T12:44:53.471Z,100527.66
2022-08-26T12:47:42.291Z,100527.76
2022-08-26T12:50:15.586Z,100524.58
2022-08-26T12:52:58.371Z,100518.17
2022-08-26T12:55:34.932Z,100519.76
2022-08-26T12:58:31.152Z,100515.72
2022-08-26T13:01:03.846Z,100510.88
2022-08-26T13:03:43.079Z,100513.77
2022-08-26T13:06:21.897Z,100514.76
2022-08-26T13:09:05.552Z,100502.98
2022-08-26T13:11:52.541Z,100498.40
2022-08-26T13:14:23.842Z,100498.66
2022-08-26T13:16:52.393Z,100498.13
2022-08-26T13:19:21.798Z,100493.62
2022-08-26T13:21:53.880Z,100495.45
2022-08-26T13:24:41.821Z,100491.54
2022-08-26T13:27:11.181Z,100489.98
2022-08-26T13:29:38.144Z,100483.02
2022-08-26T13:32:05.989Z,100480.58
2022-08-26T13:34:33.561Z,100478.77
2022-08-26T13:37:00.059Z,100473.70
2022-08-26T13:39:26.561Z,100470.44
2022-08-26T13:41:54.081Z,100468.94
2022-08-26T13:44:21.152Z,100467.33
2022-08-26T13:46:47.514Z,100465.70
2022-08-26T13:49:14.013Z,100463.92
2022-08-26T13:51:41.298Z,100459.41
2022-08-26T13:54:07.772Z,100463.73
2022-08-26T13:56:35.223Z,100458.26
2022-08-26T13:59:02.298Z,100452.20
2022-08-26T14:01:31.021Z,100452.56
2022-08-26T14:03:58.118Z,100449.69
2022-08-26T14:06:24.904Z,100445.92
2022-08-26T14:08:51.430Z,100445.70
2022-08-26T14:11:18.388Z,100442.86
2022-08-26T14:13:44.822Z,100439.65
2022-08-26T14:16:19.853Z,100441.76
2022-08-26T14:18:50.472Z,100440.77
2022-08-26T14:21:17.732Z,100444.94
2022-08-26T14:23:44.168Z,100441.90
2022-08-26T14:26:10.702Z,100442.98
2022-08-26T14:28:45.738Z,100442.69
2022-08-26T14:31:12.829Z,100442.89
2022-08-26T14:33:39.320Z,100447.20
2022-08-26T14:36:25.294Z,100444.02
2022-08-26T14:38:53.623Z,100444.35
2022-08-26T14:41:22.279Z,100446.52
2022-08-26T14:43:57.115Z,100445.19
2022-08-26T14:46:27.591Z,100443.90
2022-08-26T14:48:56.638Z,100439.14
2022-08-26T14:51:28.507Z,100436.52
2022-08-26T14:54:13.138Z,100431.40
2022-08-26T14:56:46.851Z,100427.89
2022-08-26T14:59:16.859Z,100424.45
2022-08-26T15:01:43.913Z,100425.23
2022-08-26T15:04:10.488Z,100422.70
2022-08-26T15:06:37.566Z,100422.92
2022-08-26T15:09:04.091Z,100422.39
2022-08-26T15:11:30.639Z,100418.77
2022-08-26T15:13:57.143Z,100418.77
2022-08-26T15:16:23.837Z,100417.77
2022-08-26T15:18:51.016Z,100414.41
2022-08-26T15:21:19.344Z,100414.80
2022-08-26T15:23:48.057Z,100408.75
2022-08-26T15:26:16.369Z,100406.62
2022-08-26T15:28:43.219Z,100407.36
2022-08-26T15:31:10.234Z,100403.60
2022-08-26T15:33:37.591Z,100405.83
2022-08-26T15:36:06.503Z,100401.40
2022-08-26T15:38:37.412Z,100401.16
2022-08-26T15:41:05.964Z,100398.54
2022-08-26T15:43:32.690Z,100399.89
2022-08-26T15:45:59.026Z,100400.71
2022-08-26T15:48:25.721Z,100397.73
2022-08-26T15:50:59.715Z,100399.91
2022-08-26T15:53:29.856Z,100403.48
2022-08-26T15:55:57.950Z,100400.55
2022-08-26T15:58:26.972Z,100402.90
2022-08-26T16:00:55.123Z,100404.56
2022-08-26T16:03:22.100Z,100408.08
2022-08-26T16:05:48.539Z,100405.59
2022-08-26T16:08:15.380Z,100407.02
2022-08-26T16:10:49.792Z,100406.86
2022-08-26T16:13:19.380Z,100407.86
2022-08-26T16:15:47.366Z,100407.80
2022-08-26T16:18:14.877Z,100408.36
2022-08-26T16:21:12.575Z,100404.56
2022-08-26T16:23:37.752Z,100406.79
2022-08-26T16:26:10.527Z,100405.91
2022-08-26T16:28:37.845Z,100403.60
2022-08-26T16:31:05.938Z,100401.77
2022-08-26T16:33:32.614Z,100400.04
2022-08-26T16:35:59.186Z,100397.23
2022-08-26T16:38:25.660Z,100396.77
2022-08-26T16:40:52.202Z,100396.56
2022-08-26T16:43:18.682Z,100395.83
2022-08-26T16:45:45.119Z,100399.63
2022-08-26T16:48:11.602Z,100398.97
2022-08-26T16:50:39.997Z,100400.21
2022-08-26T16:53:07.190Z,100401.13
2022-08-26T16:55:35.235Z,100402.14
2022-08-26T16:58:02.154Z,100398.25
2022-08-26T17:00:31.789Z,100400.27
2022-08-26T17:02:59.939Z,100401.95
2022-08-26T17:05:27.514Z,100397.04
2022-08-26T17:07:56.035Z,100397.63
2022-08-26T17:10:24.175Z,100401.83
2022-08-26T17:12:51.327Z,100397.33
2022-08-26T17:15:18.338Z,100403.73
2022-08-26T17:17:44.995Z,100398.89
2022-08-26T17:20:14.424Z,100399.71
2022-08-26T17:22:43.831Z,100397.34
2022-08-26T17:25:14.550Z,100393.58
2022-08-26T17:27:41.894Z,100391.37
2022-08-26T17:30:09.083Z,100391.08
2022-08-26T17:32:35.980Z,100388.20
2022-08-26T17:35:04.578Z,100386.38
2022-08-26T17:37:31.457Z,100385.04
2022-08-26T17:39:57.829Z,100383.36
2022-08-26T17:42:31.574Z,100383.08
2022-08-26T17:44:58.457Z,100384.05
2022-08-26T17:47:25.093Z,100384.86
2022-08-26T17:49:51.576Z,100384.36
2022-08-26T17:52:17.975Z,100377.69
2022-08-26T17:54:44.372Z,100374.11
2022-08-26T17:57:10.905Z,100374.95
2022-08-26T17:59:38.271Z,100372.01
2022-08-26T18:02:07.454Z,100375.34
2022-08-26T18:04:34.119Z,100376.70
2022-08-26T18:07:00.834Z,100373.16
2022-08-26T18:09:30.984Z,100373.60
2022-08-26T18:11:57.921Z,100374.77
2022-08-26T18:14:24.751Z,100375.01
2022-08-26T18:16:51.422Z,100371.31
2022-08-26T18:19:17.952Z,100370.90
2022-08-26T18:21:44.466Z,100368.91
2022-08-26T18:24:14.077Z,100372.41
2022-08-26T18:26:47.353Z,100371.62
2022-08-26T18:29:15.440Z,100371.40
2022-08-26T18:31:42.513Z,100375.56
2022-08-26T18:34:14.714Z,100380.01
2022-08-26T18:36:42.244Z,100380.77
2022-08-26T18:39:10.395Z,100381.34
2022-08-26T18:41:51.883Z,100377.58
2022-08-26T18:44:22.547Z,100377.91
2022-08-26T18:46:50.634Z,100383.85
2022-08-26T18:49:19.706Z,100384.20
2022-08-26T18:51:49.905Z,100386.23
2022-08-26T18:54:16.790Z,100389.85
2022-08-26T18:56:44.049Z,100390.66
2022-08-26T18:59:12.086Z,100393.20
2022-08-26T19:01:40.052Z,100395.00
2022-08-26T19:04:08.201Z,100395.73
2022-08-26T19:06:35.540Z,100400.83
2022-08-26T19:09:04.700Z,100403.64
2022-08-26T19:11:37.568Z,100405.20
2022-08-26T19:14:13.017Z,100408.79
2022-08-26T19:16:42.686Z,100411.42
2022-08-26T19:19:09.637Z,100415.20
2022-08-26T19:21:37.054Z,100416.59
2022-08-26T19:24:08.061Z,100416.04
2022-08-26T19:26:35.613Z,100416.92
2022-08-26T19:29:02.293Z,100415.06
2022-08-26T19:31:28.720Z,100413.55
2022-08-26T19:33:57.310Z,100409.36
2022-08-26T19:36:25.372Z,100406.38
2022-08-26T19:38:52.978Z,100401.98
2022-08-26T19:41:27.790Z,100399.55
2022-08-26T19:44:10.444Z,100402.78
2022-08-26T19:49:08.579Z,100420.48
2022-08-26T19:51:38.647Z,100430.13
2022-08-26T19:54:05.365Z,100432.90
2022-08-26T19:56:31.948Z,100433.98
2022-08-26T19:58:58.281Z,100435.23
2022-08-26T20:01:25.240Z,100438.27
2022-08-26T20:03:52.329Z,100436.27
2022-08-26T20:06:19.508Z,100436.46
2022-08-26T20:08:46.450Z,100435.68
2022-08-26T20:11:15.534Z,100435.98
2022-08-26T20:13:43.650Z,100436.47
2022-08-26T20:16:11.357Z,100436.56
2022-08-26T20:18:58.962Z,100442.32
2022-08-26T20:21:26.291Z,100442.40
2022-08-26T20:23:59.823Z,100441.43
2022-08-26T20:26:35.304Z,100441.34
2022-08-26T20:29:03.319Z,100439.35
2022-08-26T20:31:30.423Z,100437.13
2022-08-26T20:33:56.921Z,100435.95
2022-08-26T20:36:26.306Z,100434.38
2022-08-26T20:38:53.847Z,100433.53
2022-08-26T20:41:20.503Z,100433.60
2022-08-26T20:43:47.043Z,100435.17
2022-08-26T20:46:16.912Z,100430.57
2022-08-26T20:48:45.659Z,100428.02
2022-08-26T20:51:12.303Z,100425.65
2022-08-26T20:53:39.101Z,100417.73
2022-08-26T20:56:08.223Z,100420.09
2022-08-26T20:58:35.242Z,100417.75
2022-08-26T21:01:07.367Z,100416.71
2022-08-26T21:03:35.889Z,100416.06
2022-08-26T21:06:03.253Z,100417.60
2022-08-26T21:08:29.992Z,100419.70
2022-08-26T21:11:00.572Z,100421.67
2022-08-26T21:13:27.015Z,100428.08
2022-08-26T21:15:57.685Z,100423.26
2022-08-26T21:18:24.605Z,100423.38
2022-08-26T21:20:51.101Z,100422.46
2022-08-26T21:23:18.737Z,100426.51
2022-08-26T21:25:45.941Z,100426.27
2022-08-26T21:28:12.294Z,100424.44
2022-08-26T21:30:40.286Z,100420.14
2022-08-26T21:33:07.964Z,100421.18
2022-08-26T21:35:35.015Z,100420.37
2022-08-26T21:38:01.634Z,100414.79
2022-08-26T21:40:28.085Z,100412.95
2022-08-26T21:42:54.727Z,100415.83
2022-08-26T21:45:21.172Z,100412.46
2022-08-26T21:47:47.840Z,100408.88
2022-08-26T21:50:14.255Z,100408.23
2022-08-26T21:52:40.757Z,100409.19
2022-08-26T21:55:09.346Z,100401.33
2022-08-26T21:57:38.202Z,100399.19
2022-08-26T22:00:08.319Z,100394.89
2022-08-26T22:02:36.324Z,100393.77
2022-08-26T22:05:03.659Z,100393.02
2022-08-26T22:07:30.267Z,100391.59
2022-08-26T22:09:57.333Z,100396.23
2022-08-26T22:12:23.779Z,100392.55
2022-08-26T22:14:50.210Z,100392.99
2022-08-26T22:17:16.927Z,100388.22
2022-08-26T22:19:46.302Z,100383.45
2022-08-26T22:22:14.470Z,100381.14
2022-08-26T22:24:42.670Z,100377.09
2022-08-26T22:27:11.311Z,100381.26
2022-08-26T22:29:38.427Z,100383.24
2022-08-26T22:32:05.433Z,100390.55
2022-08-26T22:34:32.007Z,100391.06
2022-08-26T22:36:59.001Z,100393.09
2022-08-26T22:39:26.242Z,100394.32
2022-08-26T22:41:53.885Z,100394.80
2022-08-26T22:44:21.688Z,100397.05
2022-08-26T22:46:49.859Z,100399.14
2022-08-26T22:49:16.973Z,100397.94
2022-08-26T22:51:44.242Z,100391.54
2022-08-26T22:54:11.367Z,100387.27
2022-08-26T22:56:38.680Z,100388.22
2022-08-26T22:59:07.298Z,100385.23
2022-08-26T23:01:36.680Z,100380.66
2022-08-26T23:04:04.746Z,100380.42
2022-08-26T23:06:33.379Z,100373.42
2022-08-26T23:08:59.709Z,100368.50
2022-08-26T23:11:26.368Z,100357.88
2022-08-26T23:13:52.969Z,100352.62
2022-08-26T23:16:19.535Z,100352.58
2022-08-26T23:18:46.504Z,100358.16
2022-08-26T23:21:12.938Z,100368.91
2022-08-26T23:23:39.405Z,100372.95
2022-08-26T23:26:07.362Z,100364.34
2022-08-26T23:28:35.602Z,100365.13
2022-08-26T23:31:02.018Z,100361.66
2022-08-26T23:33:48.745Z,100359.80
2022-08-26T23:36:17.927Z,100361.91
2022-08-26T23:38:46.292Z,100360.58
2022-08-26T23:41:22.230Z,100360.36
2022-08-26T23:43:49.273Z,100356.92
2022-08-26T23:46:15.669Z,100354.45
2022-08-26T23:48:42.133Z,100353.95
2022-08-26T23:51:27.903Z,100357.25
2022-08-26T23:53:54.791Z,100364.98
2022-08-26T23:56:21.242Z,100365.34
2022-08-26T23:58:47.775Z,100359.34
